Time;durP1;ratioP1;P1;durP2;ratioP2;P2;SDS_P1;SDS_P2;PMS_P1;PMS_P2;Temp;Humidity;BMP_temperature;BMP_pressure;BME280_temperature;BME280_humidity;BME280_pressure;Samples;Min_cycle;Max_cycle;Signal;HPM_P1;HPM_P2
2022/05/11 00:01:57;;;;;;;9.70;5.50;;;;;;;19.44;42.45;95429.38;4935122;29;21227;-60
2022/05/11 00:04:24;;;;;;;9.23;5.40;;;;;;;19.40;43.06;95428.41;4936022;29;20873;-61
2022/05/11 00:06:51;;;;;;;11.03;5.50;;;;;;;19.57;42.75;95433.91;4934908;29;20440;-64
2022/05/11 00:09:18;;;;;;;7.90;5.20;;;;;;;19.61;42.70;95426.09;4935970;29;20474;-63
2022/05/11 00:11:45;;;;;;;8.20;5.00;;;;;;;19.55;42.59;95419.31;4935382;29;20511;-61
2022/05/11 00:14:13;;;;;;;10.17;5.27;;;;;;;19.06;43.34;95412.84;4932764;29;20480;-64
2022/05/11 00:16:40;;;;;;;6.57;5.50;;;;;;;19.38;42.50;95419.16;4935219;29;20523;-62
2022/05/11 00:19:07;;;;;;;7.57;5.40;;;;;;;19.18;42.45;95397.19;4935340;29;20958;-65
2022/05/11 00:21:35;;;;;;;9.40;5.20;;;;;;;19.27;42.94;95407.91;4935132;29;20448;-65
2022/05/11 00:24:01;;;;;;;7.70;5.27;;;;;;;19.36;42.30;95400.06;4936261;29;20432;-62
2022/05/11 00:26:29;;;;;;;8.10;5.60;;;;;;;18.51;43.87;95405.13;4935855;29;20561;-64
2022/05/11 00:28:56;;;;;;;9.73;5.80;;;;;;;18.16;44.94;95404.63;4936001;29;20441;-61
2022/05/11 00:31:23;;;;;;;8.73;5.67;;;;;;;18.45;44.51;95404.41;4935397;29;20468;-63
2022/05/11 00:33:51;;;;;;;8.53;5.57;;;;;;;18.27;45.68;95399.94;4935222;29;20487;-64
2022/05/11 00:36:18;;;;;;;6.50;5.23;;;;;;;18.44;45.56;95405.50;4934752;29;20456;-65
2022/05/11 00:38:47;;;;;;;9.93;6.07;;;;;;;18.54;45.66;95407.22;4935495;29;20531;-60
2022/05/11 00:41:14;;;;;;;9.47;5.47;;;;;;;18.79;44.82;95407.53;4934958;29;20963;-65
2022/05/11 00:43:52;;;;;;;8.00;5.57;;;;;;;18.74;44.97;95404.97;4935662;29;20472;-64
2022/05/11 00:46:34;;;;;;;7.70;5.67;;;;;;;18.90;44.44;95408.91;4935045;29;20432;-63
2022/05/11 00:51:58;;;;;;;8.03;5.60;;;;;;;19.21;43.51;95399.25;4935082;29;20448;-62
2022/05/11 00:54:29;;;;;;;14.17;6.33;;;;;;;18.70;44.81;95403.97;4934738;29;20455;-62
2022/05/11 00:57:01;;;;;;;8.37;5.60;;;;;;;18.93;44.24;95396.91;4934619;29;20516;-62
2022/05/11 00:59:34;;;;;;;8.13;5.73;;;;;;;18.81;44.30;95396.63;4934730;29;20448;-63
2022/05/11 01:02:04;;;;;;;8.40;5.90;;;;;;;19.00;44.42;95413.22;4933540;29;20559;-63
2022/05/11 01:04:36;;;;;;;8.43;5.70;;;;;;;19.06;44.10;95412.06;4934526;29;20440;-64
2022/05/11 01:07:04;;;;;;;9.07;5.57;;;;;;;19.09;44.51;95417.56;4933724;29;20448;-65
2022/05/11 01:09:31;;;;;;;9.27;5.57;;;;;;;18.85;44.14;95414.31;4935201;29;20868;-61
2022/05/11 01:12:00;;;;;;;8.27;6.00;;;;;;;18.88;43.97;95416.41;4934386;29;20444;-61
2022/05/11 01:14:35;;;;;;;9.07;6.17;;;;;;;18.98;43.66;95410.88;4926919;29;21101;-62
2022/05/11 01:17:02;;;;;;;9.67;6.73;;;;;;;18.40;45.39;95416.94;4934347;29;21053;-63
2022/05/11 01:19:35;;;;;;;12.53;6.77;;;;;;;18.06;46.14;95419.91;4934785;29;20535;-62
2022/05/11 01:22:10;;;;;;;12.37;7.23;;;;;;;18.07;46.09;95416.97;4933951;29;20975;-63
2022/05/11 01:24:43;;;;;;;15.30;7.77;;;;;;;17.96;46.46;95409.44;4934533;29;20463;-60
2022/05/11 01:27:29;;;;;;;9.23;7.10;;;;;;;17.71;46.38;95402.66;4934396;29;20480;-65
2022/05/11 01:29:59;;;;;;;14.20;6.97;;;;;;;17.66;46.72;95415.19;4933879;29;20830;-61
2022/05/11 01:32:27;;;;;;;12.80;7.10;;;;;;;17.90;45.32;95389.41;4934398;29;20526;-59
2022/05/11 01:35:24;;;;;;;10.43;6.73;;;;;;;18.22;44.85;95397.38;4933597;29;20967;-63
2022/05/11 01:38:08;;;;;;;9.03;6.97;;;;;;;17.97;45.87;95411.03;4933267;29;20455;-62
2022/05/11 01:40:36;;;;;;;12.60;6.93;;;;;;;18.12;45.71;95413.44;4934219;29;20451;-60
2022/05/11 01:43:03;;;;;;;10.43;7.20;;;;;;;18.07;45.62;95405.56;4934419;29;20448;-64
2022/05/11 01:45:30;;;;;;;11.03;6.40;;;;;;;18.45;44.90;95419.56;4933840;29;20837;-62
2022/05/11 01:47:57;;;;;;;7.30;6.57;;;;;;;18.30;45.12;95415.28;4934256;29;20833;-64
2022/05/11 01:50:25;;;;;;;14.30;7.13;;;;;;;18.52;44.58;95407.47;4932731;29;20841;-63
2022/05/11 01:52:52;;;;;;;11.10;6.80;;;;;;;18.53;44.36;95405.63;4934240;29;20484;-62
2022/05/11 01:55:19;;;;;;;10.60;6.43;;;;;;;18.71;44.09;95400.25;4933603;29;20630;-65
2022/05/11 01:57:46;;;;;;;8.63;6.47;;;;;;;18.54;45.07;95405.31;4934004;29;20444;-65
2022/05/11 02:00:13;;;;;;;8.33;6.80;;;;;;;18.52;44.64;95401.41;4933642;29;20494;-61
2022/05/11 02:02:40;;;;;;;10.63;6.70;;;;;;;18.68;44.32;95392.88;4934199;29;20444;-62
2022/05/11 02:07:53;;;;;;;10.03;7.37;;;;;;;18.61;44.53;95399.66;4933950;29;20445;-65
2022/05/11 02:10:23;;;;;;;10.17;7.47;;;;;;;18.76;44.85;95400.13;4933686;29;20444;-62
2022/05/11 02:12:51;;;;;;;8.13;7.00;;;;;;;18.54;44.45;95400.00;4933545;29;20506;-63
2022/05/11 02:15:19;;;;;;;12.47;7.13;;;;;;;18.66;44.47;95403.00;4933263;29;20480;-63
2022/05/11 02:17:46;;;;;;;9.60;8.00;;;;;;;18.45;45.17;95403.66;4933657;29;20455;-60
2022/05/11 02:20:16;;;;;;;11.27;7.73;;;;;;;18.25;45.40;95407.38;4933499;29;20532;-62
2022/05/11 02:22:44;;;;;;;11.13;7.10;;;;;;;18.17;45.92;95410.72;4933370;29;20950;-62
2022/05/11 02:25:12;;;;;;;12.33;7.27;;;;;;;18.20;45.81;95410.13;4933445;29;20461;-63
2022/05/11 02:27:39;;;;;;;11.87;7.13;;;;;;;17.93;46.73;95402.88;4933647;29;20445;-63
2022/05/11 02:30:10;;;;;;;10.67;7.30;;;;;;;18.05;46.33;95407.72;4933081;29;20449;-64
2022/05/11 02:32:37;;;;;;;11.90;6.63;;;;;;;18.19;46.35;95408.56;4933218;29;20452;-63
2022/05/11 02:35:16;;;;;;;11.27;8.10;;;;;;;17.51;47.49;95407.47;4931444;29;20983;-62
2022/05/11 02:37:43;;;;;;;18.43;10.50;;;;;;;17.14;48.42;95408.97;4934425;29;20452;-62
2022/05/11 02:40:13;;;;;;;18.97;9.90;;;;;;;17.63;47.17;95410.47;4936268;29;20436;-64
2022/05/11 02:42:40;;;;;;;16.20;8.77;;;;;;;17.82;47.69;95403.31;4933610;29;20448;-63
2022/05/11 02:45:07;;;;;;;12.73;9.07;;;;;;;17.88;47.11;95413.53;4932780;29;20440;-63
2022/05/11 02:47:35;;;;;;;14.37;9.57;;;;;;;17.30;47.50;95411.44;4933213;29;20429;-65
2022/05/11 02:50:05;;;;;;;16.90;10.00;;;;;;;17.78;47.16;95412.91;4931721;29;20457;-64
2022/05/11 02:52:33;;;;;;;15.77;8.73;;;;;;;17.88;46.45;95418.06;4932822;29;20559;-64
2022/05/11 02:54:59;;;;;;;18.83;9.67;;;;;;;17.94;46.31;95414.25;4932690;29;20796;-63
2022/05/11 02:57:27;;;;;;;13.47;9.17;;;;;;;18.00;46.51;95403.28;4925327;29;20444;-65
2022/05/11 02:59:53;;;;;;;13.43;8.13;;;;;;;18.06;45.75;95419.91;4932168;29;20499;-65
2022/05/11 03:02:21;;;;;;;16.47;8.60;;;;;;;18.03;45.85;95417.81;4933249;29;20453;-60
2022/05/11 03:04:48;;;;;;;15.60;8.30;;;;;;;17.77;46.93;95432.53;4933064;29;20448;-66
2022/05/11 03:07:16;;;;;;;11.50;8.30;;;;;;;17.78;47.27;95431.47;4932202;29;20822;-65
2022/05/11 03:09:43;;;;;;;15.90;8.33;;;;;;;17.97;46.64;95426.94;4932340;29;20437;-63
2022/05/11 03:12:10;;;;;;;14.33;8.50;;;;;;;17.83;46.69;95431.38;4932209;29;20455;-64
2022/05/11 03:14:38;;;;;;;16.80;8.47;;;;;;;17.63;47.61;95436.97;4932577;29;20491;-63
2022/05/11 03:17:05;;;;;;;13.73;8.80;;;;;;;17.66;46.96;95431.09;4932212;29;21290;-63
2022/05/11 03:19:32;;;;;;;11.90;7.93;;;;;;;18.06;46.32;95443.78;4932674;29;20448;-62
2022/05/11 03:21:59;;;;;;;10.10;7.70;;;;;;;17.78;46.07;95428.81;4932151;29;20495;-64
2022/05/11 03:24:26;;;;;;;11.33;7.20;;;;;;;17.27;46.97;95443.75;4932743;29;20487;-64
2022/05/11 03:26:53;;;;;;;10.30;7.57;;;;;;;17.56;46.61;95445.28;4932713;29;20480;-63
2022/05/11 03:29:20;;;;;;;9.63;7.07;;;;;;;17.90;45.92;95432.59;4931682;29;20440;-61
2022/05/11 03:34:36;;;;;;;17.30;7.80;;;;;;;18.32;44.87;95439.63;4932643;29;20494;-61
2022/05/11 03:37:11;;;;;;;14.17;9.33;;;;;;;17.10;50.57;95442.38;4930494;29;20459;-66
2022/05/11 03:39:39;;;;;;;12.27;8.73;;;;;;;16.69;52.11;95438.59;4932047;29;20444;-63
2022/05/11 03:42:06;;;;;;;18.43;8.33;;;;;;;17.03;51.01;95439.28;4932553;29;20511;-64
2022/05/11 03:44:34;;;;;;;16.07;8.33;;;;;;;17.22;50.10;95442.75;4932862;29;20449;-62
2022/05/11 03:47:01;;;;;;;14.37;8.63;;;;;;;18.06;47.67;95441.13;4931261;29;20440;-63
2022/05/11 03:49:28;;;;;;;10.07;7.57;;;;;;;17.59;48.44;95439.41;4932473;29;20424;-63
2022/05/11 03:51:55;;;;;;;17.43;7.40;;;;;;;16.95;48.85;95453.13;4931725;29;20989;-60
2022/05/11 03:54:23;;;;;;;11.47;7.37;;;;;;;17.16;48.47;95449.19;4932394;29;20503;-62
2022/05/11 03:56:49;;;;;;;10.87;6.87;;;;;;;17.64;47.51;95449.16;4931477;29;20880;-66
2022/05/11 03:59:17;;;;;;;18.13;6.93;;;;;;;17.64;47.21;95454.44;4931930;29;20456;-63
2022/05/11 04:01:43;;;;;;;12.70;7.03;;;;;;;17.55;47.73;95448.22;4930906;29;20995;-65
2022/05/11 04:04:11;;;;;;;10.60;6.03;;;;;;;17.86;47.48;95458.09;4932042;29;20962;-64
2022/05/11 04:06:38;;;;;;;11.40;6.93;;;;;;;17.96;46.64;95451.88;4931713;29;20756;-68
2022/05/11 04:09:05;;;;;;;11.10;6.87;;;;;;;18.16;46.13;95452.34;4932069;29;20450;-63
2022/05/11 04:11:33;;;;;;;12.87;6.97;;;;;;;18.42;44.86;95454.63;4931979;29;21010;-64
2022/05/11 04:14:00;;;;;;;17.10;9.30;;;;;;;18.04;46.05;95459.19;4932121;29;21029;-63
2022/05/11 04:16:27;;;;;;;14.17;6.70;;;;;;;18.07;46.28;95469.22;4931700;29;20516;-64
2022/05/11 04:18:54;;;;;;;14.00;6.57;;;;;;;18.17;46.15;95474.38;4931428;29;20448;-63
2022/05/11 04:21:21;;;;;;;13.50;8.23;;;;;;;18.38;45.36;95470.31;4931075;29;20515;-65
2022/05/11 04:23:48;;;;;;;18.73;11.47;;;;;;;18.16;46.16;95472.78;4930685;29;20507;-65
2022/05/11 04:26:15;;;;;;;21.03;14.17;;;;;;;18.04;46.29;95483.06;4930912;29;20543;-64
2022/05/11 04:28:43;;;;;;;20.00;14.40;;;;;;;18.24;46.25;95482.75;4931616;29;20878;-65
2022/05/11 04:31:12;;;;;;;20.13;12.93;;;;;;;18.22;46.47;95487.56;4930470;29;20951;-63
2022/05/11 04:33:40;;;;;;;20.13;12.33;;;;;;;18.16;46.18;95499.31;4938326;29;20491;-64
2022/05/11 04:36:07;;;;;;;19.93;11.13;;;;;;;18.44;46.07;95485.13;4930345;29;20507;-64
2022/05/11 04:38:35;;;;;;;23.40;10.60;;;;;;;18.45;46.12;95489.34;4929756;29;20456;-66
2022/05/11 04:41:02;;;;;;;15.27;10.03;;;;;;;18.29;46.24;95487.19;4934033;29;20455;-65
2022/05/11 04:43:30;;;;;;;15.47;9.37;;;;;;;18.37;46.04;95484.69;4934736;29;20514;-66
2022/05/11 04:45:57;;;;;;;14.90;9.57;;;;;;;17.45;47.31;95490.69;4933999;29;20444;-68
2022/05/11 04:48:26;;;;;;;15.57;9.63;;;;;;;17.96;45.97;95489.00;4934620;29;20477;-66
2022/05/11 04:50:59;;;;;;;13.67;9.60;;;;;;;18.00;45.96;95479.41;4934128;29;20618;-64
2022/05/11 04:53:26;;;;;;;60.10;43.20;;;;;;;17.49;47.34;95486.44;4933561;29;20492;-65
2022/05/11 04:55:53;;;;;;;68.97;53.57;;;;;;;18.12;46.55;95493.00;4934776;29;20452;-63
2022/05/11 04:58:20;;;;;;;83.70;65.80;;;;;;;18.62;45.25;95486.94;4937774;29;20579;-64
2022/05/11 05:00:46;;;;;;;19.60;10.43;;;;;;;18.13;46.82;95494.59;4934619;29;20515;-65
2022/05/11 05:03:14;;;;;;;18.43;10.50;;;;;;;18.69;45.59;95491.88;4934274;29;20911;-63
2022/05/11 05:05:43;;;;;;;18.13;11.10;;;;;;;18.80;44.96;95491.41;4934067;29;20519;-63
2022/05/11 05:08:10;;;;;;;23.13;10.47;;;;;;;18.48;45.31;95490.63;4934417;29;20483;-65
2022/05/11 05:10:38;;;;;;;12.43;10.27;;;;;;;17.17;48.59;95506.38;4933799;29;20527;-66
2022/05/11 05:13:08;;;;;;;19.83;11.90;;;;;;;17.72;47.42;95504.16;4934563;29;20454;-67
2022/05/11 05:15:38;;;;;;;19.20;11.23;;;;;;;17.52;48.06;95504.41;4933986;29;20483;-66
2022/05/11 05:18:06;;;;;;;18.20;10.23;;;;;;;17.99;47.38;95502.47;4934777;29;20445;-67
2022/05/11 05:20:34;;;;;;;88.77;69.63;;;;;;;18.46;45.63;95501.53;4933732;29;20453;-65
2022/05/11 05:23:01;;;;;;;17.93;13.53;;;;;;;18.84;45.05;95481.78;4933930;29;20448;-66
2022/05/11 05:25:27;;;;;;;20.00;12.37;;;;;;;19.14;45.14;95494.50;4933734;29;20488;-67
2022/05/11 05:31:04;;;;;;;18.80;11.90;;;;;;;18.92;46.64;95507.66;4934473;29;20825;-68
2022/05/11 05:33:29;;;;;;;23.33;11.43;;;;;;;18.25;47.69;95504.78;4926164;29;20504;-66
2022/05/11 05:35:56;;;;;;;16.60;11.03;;;;;;;18.12;48.39;95504.41;4933658;29;20444;-65
2022/05/11 05:38:26;;;;;;;25.70;11.33;;;;;;;19.57;45.82;95512.84;4934484;29;20491;-66
2022/05/11 05:40:54;;;;;;;13.93;11.07;;;;;;;18.52;47.23;95513.63;4931164;29;20448;-67
2022/05/11 05:43:22;;;;;;;23.10;11.17;;;;;;;19.00;46.13;95514.97;4932016;29;20507;-67
2022/05/11 05:45:51;;;;;;;16.63;11.83;;;;;;;19.34;45.87;95519.16;4931486;29;20959;-68
2022/05/11 05:48:19;;;;;;;19.87;12.00;;;;;;;19.05;47.57;95520.19;4932618;29;20535;-65
2022/05/11 05:50:46;;;;;;;20.10;10.90;;;;;;;19.46;45.34;95527.44;4932307;29;20888;-64
2022/05/11 05:53:19;;;;;;;20.50;11.83;;;;;;;20.16;43.78;95525.97;4933365;29;20451;-70
2022/05/11 05:55:48;;;;;;;17.93;11.13;;;;;;;20.05;44.53;95528.06;4933087;29;20821;-64
2022/05/11 05:58:16;;;;;;;18.27;11.53;;;;;;;19.85;45.13;95530.38;4933599;29;20986;-62
2022/05/11 06:00:44;;;;;;;20.20;14.10;;;;;;;20.05;44.63;95519.31;4933376;29;20515;-68
2022/05/11 06:03:14;;;;;;;21.63;13.37;;;;;;;20.03;44.80;95521.47;4933611;29;20447;-68
2022/05/11 06:05:41;;;;;;;18.90;12.20;;;;;;;20.51;44.15;95527.84;4933173;29;20928;-67
2022/05/11 06:08:09;;;;;;;20.00;12.20;;;;;;;20.82;43.65;95523.38;4933556;29;20456;-67
2022/05/11 06:10:39;;;;;;;18.90;11.40;;;;;;;20.57;42.91;95531.97;4932656;29;20863;-67
2022/05/11 06:13:07;;;;;;;17.40;12.00;;;;;;;19.89;45.57;95526.03;4933427;29;20458;-68
2022/05/11 06:15:35;;;;;;;28.87;11.73;;;;;;;19.94;44.71;95521.38;4932495;29;20499;-66
2022/05/11 06:18:02;;;;;;;26.83;12.07;;;;;;;19.52;45.12;95531.56;4933887;29;20492;-70
2022/05/11 06:20:29;;;;;;;22.07;11.83;;;;;;;19.74;45.68;95534.31;4932686;29;20508;-65
2022/05/11 06:22:56;;;;;;;20.43;12.13;;;;;;;20.26;44.46;95538.28;4933124;29;20472;-66
2022/05/11 06:25:23;;;;;;;26.63;11.27;;;;;;;20.56;42.68;95534.94;4932608;29;20990;-69
2022/05/11 06:27:50;;;;;;;22.07;12.07;;;;;;;20.34;43.98;95543.69;4933478;29;20499;-69
2022/05/11 06:30:17;;;;;;;19.67;11.70;;;;;;;20.53;42.17;95523.00;4933060;29;20871;-66
2022/05/11 06:32:44;;;;;;;19.73;12.20;;;;;;;20.06;45.79;95532.31;4933306;29;20448;-67
2022/05/11 06:35:11;;;;;;;17.07;12.00;;;;;;;20.19;44.45;95536.03;4932514;29;20564;-68
2022/05/11 06:37:42;;;;;;;17.27;11.00;;;;;;;20.84;41.72;95531.84;4933185;29;20447;-68
2022/05/11 06:40:11;;;;;;;17.23;11.23;;;;;;;20.63;41.89;95536.09;4932626;29;20629;-66
2022/05/11 06:42:38;;;;;;;13.80;9.40;;;;;;;20.42;40.63;95527.00;4933102;29;20504;-64
2022/05/11 06:45:06;;;;;;;20.97;10.50;;;;;;;20.65;40.74;95517.94;4932274;29;20502;-67
2022/05/11 06:47:33;;;;;;;18.17;9.67;;;;;;;20.99;41.27;95539.50;4932653;29;20440;-67
2022/05/11 06:50:00;;;;;;;19.80;10.30;;;;;;;21.37;40.19;95533.75;4932837;29;20437;-69
2022/05/11 06:52:27;;;;;;;19.53;10.70;;;;;;;21.73;40.08;95529.00;4934679;29;20440;-70
2022/05/11 07:00:30;;;;;;;15.07;9.80;;;;;;;22.11;38.85;95533.50;4932590;29;20503;-67
2022/05/11 07:02:57;;;;;;;11.03;8.87;;;;;;;21.40;38.65;95533.13;4932576;29;20446;-67
2022/05/11 07:05:32;;;;;;;13.13;8.93;;;;;;;21.39;39.60;95526.19;4931844;29;21103;-68
2022/05/11 07:07:59;;;;;;;14.17;9.17;;;;;;;21.32;40.29;95521.31;4932555;29;20467;-65
2022/05/11 07:10:26;;;;;;;16.30;9.03;;;;;;;22.17;38.67;95522.69;4932226;29;20460;-66
2022/05/11 07:12:53;;;;;;;11.53;8.30;;;;;;;22.35;37.29;95532.28;4932661;29;20460;-67
2022/05/11 07:15:22;;;;;;;13.37;8.40;;;;;;;22.56;37.56;95528.69;4931697;29;20556;-68
2022/05/11 07:17:56;;;;;;;11.67;8.47;;;;;;;22.26;38.90;95518.94;4932626;29;20488;-70
2022/05/11 07:20:26;;;;;;;14.20;8.37;;;;;;;22.39;38.49;95511.84;4932328;29;20208;-64
2022/05/11 07:22:54;;;;;;;18.63;10.10;;;;;;;21.53;40.76;95517.00;4932618;29;20998;-64
2022/05/11 07:25:24;;;;;;;11.13;7.47;;;;;;;22.85;37.61;95515.44;4930111;29;20258;-70
2022/05/11 07:27:52;;;;;;;10.87;6.60;;;;;;;22.83;36.13;95511.50;4932553;29;20575;-70
2022/05/11 07:30:26;;;;;;;7.70;6.13;;;;;;;22.86;35.33;95495.63;4931861;29;20868;-68
2022/05/11 07:33:00;;;;;;;7.73;6.50;;;;;;;22.61;34.38;95506.38;4932292;29;20200;-69
2022/05/11 07:35:28;;;;;;;13.10;6.10;;;;;;;22.37;36.50;95498.78;4931266;29;20261;-66
2022/05/11 07:37:56;;;;;;;15.23;6.33;;;;;;;22.03;37.00;95488.09;4932247;29;20240;-70
2022/05/11 07:40:23;;;;;;;20.57;6.53;;;;;;;22.89;36.97;95495.00;4931578;29;20201;-66
2022/05/11 07:42:50;;;;;;;12.80;6.20;;;;;;;23.07;34.16;95499.22;4932061;29;20573;-68
2022/05/11 07:45:18;;;;;;;11.33;6.47;;;;;;;21.86;35.22;95504.13;4931561;29;20516;-70
2022/05/11 07:47:45;;;;;;;14.77;6.70;;;;;;;22.49;35.23;95495.50;4932115;29;20280;-66
2022/05/11 07:50:13;;;;;;;15.33;7.10;;;;;;;22.65;34.12;95496.59;4931638;29;20251;-66
2022/05/11 07:52:42;;;;;;;12.77;7.00;;;;;;;22.81;34.26;95481.69;4931698;29;20216;-71
2022/05/11 07:55:09;;;;;;;11.70;6.93;;;;;;;22.78;34.05;95488.44;4931070;29;20480;-70
2022/05/11 08:00:22;;;;;;;10.87;6.70;;;;;;;23.24;33.63;95486.88;4931683;29;20300;-70
2022/05/11 08:02:55;;;;;;;11.93;5.67;;;;;;;23.27;33.86;95484.34;4931855;29;20288;-69
2022/05/11 08:05:23;;;;;;;8.53;5.50;;;;;;;23.89;33.86;95473.81;4932183;29;20212;-67
2022/05/11 08:07:53;;;;;;;9.83;5.50;;;;;;;24.11;32.91;95473.53;4932086;29;20287;-67
2022/05/11 08:10:23;;;;;;;8.03;4.47;;;;;;;24.44;31.42;95474.38;4932590;29;20197;-72
2022/05/11 08:12:52;;;;;;;7.97;4.53;;;;;;;24.33;30.78;95473.22;4933703;29;20205;-67
2022/05/11 08:15:21;;;;;;;7.77;5.00;;;;;;;23.26;33.56;95465.94;4933281;29;20802;-70
2022/05/11 08:17:50;;;;;;;12.00;5.00;;;;;;;24.36;31.85;95472.56;4935517;29;20201;-66
2022/05/11 08:20:26;;;;;;;6.40;5.10;;;;;;;24.30;31.38;95468.53;4935056;29;20690;-69
2022/05/11 08:22:53;;;;;;;9.77;5.77;;;;;;;24.68;30.21;95458.41;4935828;29;20200;-64
2022/05/11 08:25:23;;;;;;;9.17;4.83;;;;;;;24.38;31.13;95459.63;4935353;29;20204;-62
2022/05/11 08:27:51;;;;;;;10.10;5.03;;;;;;;24.04;31.63;95454.53;4935385;29;20193;-68
2022/05/11 08:33:27;;;;;;;6.67;4.40;;;;;;;24.22;30.80;95461.34;4894823;29;20292;-69
2022/05/11 08:36:23;;;;;;;7.10;4.10;;;;;;;24.54;30.07;95463.25;4894737;29;20225;-70
2022/05/11 08:38:55;;;;;;;6.53;4.27;;;;;;;24.59;32.56;95457.72;4922162;29;20192;-65
2022/05/11 08:41:48;;;;;;;7.63;4.50;;;;;;;24.79;30.48;95451.56;4934770;29;20216;-69
2022/05/11 08:44:16;;;;;;;6.83;5.03;;;;;;;25.38;30.09;95448.53;4934776;29;20302;-66
2022/05/11 08:47:12;;;;;;;5.60;4.00;;;;;;;25.64;29.55;95457.00;4928346;29;20193;-66
2022/05/11 08:49:54;;;;;;;6.83;4.27;;;;;;;25.19;29.37;95461.66;4935040;29;20240;-66
2022/05/11 08:52:58;;;;;;;8.20;4.93;;;;;;;24.33;29.92;95462.50;4935145;29;20276;-63
2022/05/11 08:55:45;;;;;;;8.87;4.50;;;;;;;25.35;30.15;95457.19;4934272;29;20279;-69
2022/05/11 08:58:21;;;;;;;8.03;4.47;;;;;;;24.79;29.54;95454.22;4934701;29;20194;-66
2022/05/11 09:00:51;;;;;;;6.47;4.10;;;;;;;25.35;29.82;95449.16;4934461;29;20231;-68
2022/05/11 09:03:31;;;;;;;9.93;4.00;;;;;;;24.95;28.59;95452.47;4934779;29;20204;-70
2022/05/11 09:06:05;;;;;;;4.37;3.80;;;;;;;24.08;29.68;95450.09;4929456;29;20664;-72
2022/05/11 09:08:38;;;;;;;6.77;4.10;;;;;;;24.31;29.12;95448.66;4934416;29;20647;-71
2022/05/11 09:11:07;;;;;;;6.17;4.30;;;;;;;24.36;29.57;95453.81;4934701;29;20208;-66
2022/05/11 09:13:38;;;;;;;10.87;4.10;;;;;;;24.70;28.58;95391.06;4935063;29;20204;-71
2022/05/11 09:16:23;;;;;;;9.57;4.30;;;;;;;25.55;28.13;95448.28;4933981;29;20228;-66
2022/05/11 09:18:50;;;;;;;6.50;3.70;;;;;;;25.37;29.33;95446.91;4934238;29;20971;-72
2022/05/11 09:21:20;;;;;;;8.13;3.90;;;;;;;25.90;27.42;95454.75;4934361;29;20575;-68
2022/05/11 09:24:01;;;;;;;5.00;2.90;;;;;;;25.39;27.01;95450.09;4934445;29;20231;-70
2022/05/11 09:26:33;;;;;;;5.47;2.70;;;;;;;25.43;27.00;95442.94;4932444;29;20295;-70
2022/05/11 09:29:20;;;;;;;5.67;2.90;;;;;;;25.77;26.52;95442.47;4934073;29;20597;-69
2022/05/11 09:31:52;;;;;;;5.90;3.13;;;;;;;25.78;27.08;95449.41;4934448;29;20196;-63
2022/05/11 09:34:28;;;;;;;4.57;2.73;;;;;;;25.57;27.98;95444.16;4934641;29;20641;-69
2022/05/11 09:37:17;;;;;;;3.63;3.23;;;;;;;26.19;27.18;95438.38;4933982;29;20200;-67
2022/05/11 09:40:01;;;;;;;7.50;4.13;;;;;;;26.22;26.60;95440.41;4934240;29;20281;-68
2022/05/11 09:42:30;;;;;;;6.50;3.30;;;;;;;26.34;26.87;95432.28;4925541;29;20212;-66
2022/05/11 09:44:58;;;;;;;7.27;2.87;;;;;;;26.24;26.39;95434.69;4933668;29;20706;-69
2022/05/11 09:47:35;;;;;;;10.57;2.80;;;;;;;26.22;25.10;95435.03;4933879;29;20697;-69
2022/05/11 09:50:17;;;;;;;4.57;2.27;;;;;;;26.26;24.74;95441.25;4933643;29;20625;-66
2022/05/11 09:52:45;;;;;;;7.23;2.50;;;;;;;26.28;26.13;95420.19;4934397;29;20617;-65
2022/05/11 09:55:24;;;;;;;4.60;2.60;;;;;;;26.44;25.25;95423.72;4929714;29;20648;-70
2022/05/11 09:58:00;;;;;;;4.43;2.70;;;;;;;27.02;24.41;95422.97;4933019;29;20275;-69
2022/05/11 10:00:39;;;;;;;3.10;2.60;;;;;;;26.38;24.85;95416.25;4932854;29;20218;-70
2022/05/11 10:03:20;;;;;;;8.57;3.17;;;;;;;26.63;25.66;95415.00;4933673;29;20216;-67
2022/05/11 10:05:50;;;;;;;5.70;3.30;;;;;;;26.85;25.32;95409.09;4933198;29;20363;-66
2022/05/11 10:08:32;;;;;;;2.73;2.40;;;;;;;26.56;25.46;95412.94;4933486;29;20219;-71
2022/05/11 10:11:38;;;;;;;5.00;2.97;;;;;;;26.95;25.11;95409.34;4933091;29;20691;-65
2022/05/11 10:23:12;;;;;;;5.60;2.73;;;;;;;26.84;25.52;95392.16;4933377;29;20971;-70
2022/05/11 10:25:46;;;;;;;3.23;2.57;;;;;;;27.02;23.96;95403.38;4917395;29;20307;-69
2022/05/11 10:28:37;;;;;;;6.13;2.70;;;;;;;26.64;24.15;95398.53;4930358;29;20212;-65
2022/05/11 10:31:42;;;;;;;7.43;2.50;;;;;;;27.20;24.81;95398.44;4932457;29;20232;-67
2022/05/11 10:34:26;;;;;;;3.57;2.30;;;;;;;27.65;23.39;95396.06;4926064;29;20291;-69
2022/05/11 10:37:08;;;;;;;6.73;2.70;;;;;;;27.90;24.25;95389.31;4932213;29;20210;-67
2022/05/11 10:40:02;;;;;;;7.73;3.20;;;;;;;27.26;25.22;95383.59;4926139;29;20208;-66
2022/05/11 10:42:36;;;;;;;2.90;2.63;;;;;;;27.24;24.77;95393.91;4932696;29;20275;-69
2022/05/11 10:45:31;;;;;;;4.33;2.77;;;;;;;27.67;24.72;95394.56;4932486;29;20196;-70
2022/05/11 10:48:46;;;;;;;3.70;2.80;;;;;;;27.25;25.90;95400.84;4933098;29;20638;-69
2022/05/11 10:51:21;;;;;;;8.43;3.17;;;;;;;27.53;25.39;95396.16;4932777;29;20341;-68
2022/05/11 10:53:58;;;;;;;2.80;2.60;;;;;;;27.83;25.44;95389.91;4926741;29;20211;-66
2022/05/11 10:56:27;;;;;;;7.67;3.10;;;;;;;27.43;25.36;95391.31;4931942;29;20733;-68
2022/05/11 10:59:22;;;;;;;3.43;2.70;;;;;;;27.64;24.30;95397.97;4932581;29;20676;-67
2022/05/11 11:02:13;;;;;;;6.97;3.10;;;;;;;26.92;24.98;95404.69;4932367;29;20208;-65
2022/05/11 11:04:58;;;;;;;6.97;3.17;;;;;;;26.90;25.10;95401.56;4932395;29;20263;-71
2022/05/11 11:07:46;;;;;;;4.10;2.97;;;;;;;27.11;25.95;95411.28;4932679;29;20251;-69
2022/05/11 11:10:32;;;;;;;8.67;3.50;;;;;;;26.15;29.32;95418.69;4920560;29;20216;-69
2022/05/11 11:12:59;;;;;;;25.43;4.00;;;;;;;26.12;29.99;95414.00;4932488;29;20192;-68
2022/05/11 11:15:29;;;;;;;21.50;3.50;;;;;;;25.83;29.97;95411.59;4931822;29;20697;-69
2022/05/11 11:17:57;;;;;;;11.20;3.77;;;;;;;25.30;31.08;95419.88;4932677;29;20212;-71
2022/05/11 11:20:26;;;;;;;12.67;3.40;;;;;;;25.49;30.16;95409.41;4931787;29;20214;-70
2022/05/11 11:22:59;;;;;;;7.10;2.90;;;;;;;25.09;29.96;95418.06;4932503;29;20204;-71
2022/05/11 11:25:27;;;;;;;9.10;3.07;;;;;;;25.26;29.67;95424.34;4933816;29;20208;-71
2022/05/11 11:28:10;;;;;;;9.43;2.97;;;;;;;25.56;29.83;95431.09;4936028;29;20208;-71
2022/05/11 11:30:39;;;;;;;10.50;2.50;;;;;;;25.08;29.99;95423.78;4932040;29;20279;-69
2022/05/11 11:33:15;;;;;;;3.87;2.40;;;;;;;25.18;30.05;95433.28;4932509;29;20201;-70
2022/05/11 11:35:58;;;;;;;9.03;2.50;;;;;;;24.98;29.88;95438.38;4931405;29;20219;-69
2022/05/11 11:38:30;;;;;;;8.53;2.47;;;;;;;25.10;29.41;95440.31;4931472;29;20208;-69
2022/05/11 11:41:22;;;;;;;5.43;2.87;;;;;;;25.18;30.21;95438.66;4931587;29;20625;-68
2022/05/11 11:43:49;;;;;;;8.50;2.30;;;;;;;24.93;30.13;95438.63;4932254;29;20255;-66
2022/05/11 11:46:38;;;;;;;3.60;2.10;;;;;;;24.97;30.01;95438.72;4930937;29;20208;-65
2022/05/11 11:49:33;;;;;;;2.80;2.40;;;;;;;24.62;31.30;95440.97;4931746;29;20197;-68
2022/05/11 11:52:05;;;;;;;3.23;2.50;;;;;;;24.45;31.46;95438.44;4935433;29;20263;-69
2022/05/11 11:54:38;;;;;;;4.50;2.47;;;;;;;25.09;30.41;95428.00;4936000;29;20272;-66
2022/05/11 11:57:28;;;;;;;3.07;2.00;;;;;;;24.87;29.86;95428.44;4935218;29;20733;-72
2022/05/11 12:00:01;;;;;;;7.73;2.10;;;;;;;25.24;29.00;95405.09;4935339;29;20628;-69
2022/05/11 12:02:41;;;;;;;5.47;2.20;;;;;;;25.90;28.83;95417.16;4928424;29;20239;-66
2022/05/11 12:05:42;;;;;;;2.50;2.30;;;;;;;26.01;28.85;95413.66;4935150;29;20180;-66
2022/05/11 12:16:53;;;;;;;39.27;3.30;;;;;;;26.74;27.05;95406.13;4935035;29;20243;-66
2022/05/11 12:19:24;;;;;;;4.93;2.40;;;;;;;26.68;26.93;95410.19;4935528;29;20200;-68
2022/05/11 12:22:01;;;;;;;4.43;2.80;;;;;;;26.14;27.97;95416.34;4935158;29;20201;-68
2022/05/11 12:24:33;;;;;;;5.80;2.60;;;;;;;26.46;27.91;95401.91;4935731;29;20575;-68
2022/05/11 12:27:04;;;;;;;3.60;2.40;;;;;;;26.48;27.79;95411.16;4935017;29;20205;-66
2022/05/11 12:32:23;;;;;;;3.70;2.77;;;;;;;26.01;27.52;95423.63;4932609;29;20594;-71